sensor_id;sensor_type;location;lat;lon;timestamp;P1;durP1;ratioP1;P2;durP2;ratioP2
41253;SDS011;26987;59.928;30.306;2024-02-04T00:00:06;8.77;;;1.38;;
41253;SDS011;26987;59.928;30.306;2024-02-04T00:02:38;5.93;;;0.88;;
41253;SDS011;26987;59.928;30.306;2024-02-04T00:05:08;5.57;;;1.15;;
41253;SDS011;26987;59.928;30.306;2024-02-04T00:07:36;8.20;;;0.98;;
41253;SDS011;26987;59.928;30.306;2024-02-04T00:10:06;8.55;;;1.17;;
41253;SDS011;26987;59.928;30.306;2024-02-04T00:12:35;5.60;;;1.02;;
41253;SDS011;26987;59.928;30.306;2024-02-04T00:15:03;3.10;;;0.90;;
41253;SDS011;26987;59.928;30.306;2024-02-04T00:17:34;7.78;;;1.05;;
41253;SDS011;26987;59.928;30.306;2024-02-04T00:20:03;9.48;;;0.95;;
41253;SDS011;26987;59.928;30.306;2024-02-04T00:22:33;8.13;;;1.70;;
41253;SDS011;26987;59.928;30.306;2024-02-04T00:25:01;7.65;;;1.30;;
41253;SDS011;26987;59.928;30.306;2024-02-04T00:27:31;9.63;;;1.25;;
41253;SDS011;26987;59.928;30.306;2024-02-04T00:29:58;8.50;;;1.20;;
41253;SDS011;26987;59.928;30.306;2024-02-04T00:32:26;7.13;;;1.45;;
41253;SDS011;26987;59.928;30.306;2024-02-04T00:34:54;12.52;;;1.65;;
41253;SDS011;26987;59.928;30.306;2024-02-04T00:37:22;14.77;;;1.65;;
41253;SDS011;26987;59.928;30.306;2024-02-04T00:39:51;9.00;;;1.38;;
41253;SDS011;26987;59.928;30.306;2024-02-04T00:42:22;11.20;;;1.30;;
41253;SDS011;26987;59.928;30.306;2024-02-04T00:44:50;5.45;;;1.42;;
41253;SDS011;26987;59.928;30.306;2024-02-04T00:47:18;9.48;;;1.52;;
41253;SDS011;26987;59.928;30.306;2024-02-04T00:49:46;8.48;;;1.13;;
41253;SDS011;26987;59.928;30.306;2024-02-04T00:52:14;6.75;;;1.13;;
41253;SDS011;26987;59.928;30.306;2024-02-04T00:54:42;10.70;;;2.17;;
41253;SDS011;26987;59.928;30.306;2024-02-04T00:57:11;6.63;;;1.52;;
41253;SDS011;26987;59.928;30.306;2024-02-04T00:59:39;13.23;;;1.63;;
41253;SDS011;26987;59.928;30.306;2024-02-04T01:02:07;13.85;;;1.33;;
41253;SDS011;26987;59.928;30.306;2024-02-04T01:04:34;8.70;;;1.50;;
41253;SDS011;26987;59.928;30.306;2024-02-04T01:07:02;10.77;;;1.80;;
41253;SDS011;26987;59.928;30.306;2024-02-04T01:09:30;10.90;;;1.63;;
41253;SDS011;26987;59.928;30.306;2024-02-04T01:11:58;5.32;;;0.98;;
41253;SDS011;26987;59.928;30.306;2024-02-04T01:14:28;9.77;;;1.25;;
41253;SDS011;26987;59.928;30.306;2024-02-04T01:16:56;11.30;;;1.77;;
41253;SDS011;26987;59.928;30.306;2024-02-04T01:19:23;6.60;;;1.38;;
41253;SDS011;26987;59.928;30.306;2024-02-04T01:21:51;10.90;;;1.45;;
41253;SDS011;26987;59.928;30.306;2024-02-04T01:24:19;8.20;;;1.50;;
41253;SDS011;26987;59.928;30.306;2024-02-04T01:26:47;6.75;;;1.23;;
41253;SDS011;26987;59.928;30.306;2024-02-04T01:29:15;8.05;;;1.83;;
41253;SDS011;26987;59.928;30.306;2024-02-04T01:31:44;10.63;;;2.33;;
41253;SDS011;26987;59.928;30.306;2024-02-04T01:34:12;13.23;;;1.70;;
41253;SDS011;26987;59.928;30.306;2024-02-04T01:36:40;6.97;;;1.67;;
41253;SDS011;26987;59.928;30.306;2024-02-04T01:39:08;9.90;;;1.67;;
41253;SDS011;26987;59.928;30.306;2024-02-04T01:41:36;8.13;;;1.35;;
41253;SDS011;26987;59.928;30.306;2024-02-04T01:44:05;8.18;;;1.45;;
41253;SDS011;26987;59.928;30.306;2024-02-04T01:46:33;7.50;;;2.25;;
41253;SDS011;26987;59.928;30.306;2024-02-04T01:49:02;3.83;;;1.35;;
41253;SDS011;26987;59.928;30.306;2024-02-04T01:51:31;7.22;;;1.15;;
41253;SDS011;26987;59.928;30.306;2024-02-04T01:53:59;9.30;;;2.65;;
41253;SDS011;26987;59.928;30.306;2024-02-04T01:56:26;7.95;;;1.42;;
41253;SDS011;26987;59.928;30.306;2024-02-04T01:58:56;10.20;;;1.52;;
41253;SDS011;26987;59.928;30.306;2024-02-04T02:01:26;11.95;;;1.85;;
41253;SDS011;26987;59.928;30.306;2024-02-04T02:03:54;13.10;;;1.85;;
41253;SDS011;26987;59.928;30.306;2024-02-04T02:06:24;6.28;;;1.10;;
41253;SDS011;26987;59.928;30.306;2024-02-04T02:08:52;5.15;;;1.00;;
41253;SDS011;26987;59.928;30.306;2024-02-04T02:11:24;6.32;;;1.38;;
41253;SDS011;26987;59.928;30.306;2024-02-04T02:14:03;10.85;;;1.63;;
41253;SDS011;26987;59.928;30.306;2024-02-04T02:16:33;7.70;;;1.45;;
41253;SDS011;26987;59.928;30.306;2024-02-04T02:19:08;12.80;;;2.00;;
41253;SDS011;26987;59.928;30.306;2024-02-04T02:21:50;11.52;;;1.50;;
41253;SDS011;26987;59.928;30.306;2024-02-04T02:24:28;6.10;;;1.52;;
41253;SDS011;26987;59.928;30.306;2024-02-04T02:27:01;9.75;;;1.80;;
41253;SDS011;26987;59.928;30.306;2024-02-04T02:29:29;13.52;;;1.67;;
41253;SDS011;26987;59.928;30.306;2024-02-04T02:31:56;12.57;;;1.88;;
41253;SDS011;26987;59.928;30.306;2024-02-04T02:34:25;9.45;;;1.70;;
41253;SDS011;26987;59.928;30.306;2024-02-04T02:36:55;9.75;;;1.85;;
41253;SDS011;26987;59.928;30.306;2024-02-04T02:39:29;12.15;;;1.90;;
41253;SDS011;26987;59.928;30.306;2024-02-04T02:42:01;11.68;;;1.65;;
41253;SDS011;26987;59.928;30.306;2024-02-04T02:44:31;8.13;;;1.83;;
41253;SDS011;26987;59.928;30.306;2024-02-04T02:47:02;8.77;;;1.65;;
41253;SDS011;26987;59.928;30.306;2024-02-04T02:49:31;15.65;;;2.47;;
41253;SDS011;26987;59.928;30.306;2024-02-04T02:51:59;16.98;;;2.80;;
41253;SDS011;26987;59.928;30.306;2024-02-04T02:54:29;10.07;;;2.38;;
41253;SDS011;26987;59.928;30.306;2024-02-04T02:56:57;16.30;;;2.60;;
41253;SDS011;26987;59.928;30.306;2024-02-04T02:59:25;11.38;;;2.97;;
41253;SDS011;26987;59.928;30.306;2024-02-04T03:01:53;12.68;;;2.97;;
41253;SDS011;26987;59.928;30.306;2024-02-04T03:04:21;16.33;;;3.65;;
41253;SDS011;26987;59.928;30.306;2024-02-04T03:06:49;9.52;;;2.85;;
41253;SDS011;26987;59.928;30.306;2024-02-04T03:09:17;12.50;;;3.40;;
41253;SDS011;26987;59.928;30.306;2024-02-04T03:11:46;14.70;;;4.45;;
41253;SDS011;26987;59.928;30.306;2024-02-04T03:14:15;13.35;;;3.92;;
41253;SDS011;26987;59.928;30.306;2024-02-04T03:16:44;16.15;;;3.80;;
41253;SDS011;26987;59.928;30.306;2024-02-04T03:19:12;13.02;;;4.15;;
41253;SDS011;26987;59.928;30.306;2024-02-04T03:21:40;16.90;;;4.20;;
41253;SDS011;26987;59.928;30.306;2024-02-04T03:24:08;17.05;;;5.10;;
41253;SDS011;26987;59.928;30.306;2024-02-04T03:26:36;14.68;;;4.72;;
41253;SDS011;26987;59.928;30.306;2024-02-04T03:29:05;11.90;;;4.15;;
41253;SDS011;26987;59.928;30.306;2024-02-04T03:31:34;9.43;;;4.70;;
41253;SDS011;26987;59.928;30.306;2024-02-04T03:34:02;15.18;;;4.00;;
41253;SDS011;26987;59.928;30.306;2024-02-04T03:36:30;15.82;;;3.70;;
41253;SDS011;26987;59.928;30.306;2024-02-04T03:38:58;10.93;;;3.50;;
41253;SDS011;26987;59.928;30.306;2024-02-04T03:41:32;10.38;;;2.97;;
41253;SDS011;26987;59.928;30.306;2024-02-04T03:44:07;13.52;;;4.65;;
41253;SDS011;26987;59.928;30.306;2024-02-04T03:46:38;11.52;;;3.10;;
41253;SDS011;26987;59.928;30.306;2024-02-04T03:49:09;15.52;;;3.10;;
41253;SDS011;26987;59.928;30.306;2024-02-04T03:51:37;13.05;;;3.13;;
41253;SDS011;26987;59.928;30.306;2024-02-04T03:54:05;15.10;;;2.95;;
41253;SDS011;26987;59.928;30.306;2024-02-04T03:56:33;11.82;;;2.90;;
41253;SDS011;26987;59.928;30.306;2024-02-04T03:59:01;8.07;;;2.65;;
41253;SDS011;26987;59.928;30.306;2024-02-04T04:01:31;14.90;;;3.72;;
41253;SDS011;26987;59.928;30.306;2024-02-04T04:03:59;8.27;;;2.65;;
41253;SDS011;26987;59.928;30.306;2024-02-04T04:06:27;6.57;;;2.03;;
41253;SDS011;26987;59.928;30.306;2024-02-04T04:08:55;10.35;;;3.15;;
41253;SDS011;26987;59.928;30.306;2024-02-04T04:11:42;9.88;;;2.28;;
41253;SDS011;26987;59.928;30.306;2024-02-04T04:14:26;12.57;;;2.13;;
41253;SDS011;26987;59.928;30.306;2024-02-04T04:17:20;7.40;;;1.63;;
41253;SDS011;26987;59.928;30.306;2024-02-04T04:19:49;7.78;;;1.65;;
41253;SDS011;26987;59.928;30.306;2024-02-04T04:22:17;8.35;;;2.03;;
41253;SDS011;26987;59.928;30.306;2024-02-04T04:24:45;8.32;;;2.00;;
41253;SDS011;26987;59.928;30.306;2024-02-04T04:27:13;8.95;;;2.15;;
41253;SDS011;26987;59.928;30.306;2024-02-04T04:29:41;12.98;;;2.63;;
41253;SDS011;26987;59.928;30.306;2024-02-04T04:32:09;10.55;;;2.15;;
41253;SDS011;26987;59.928;30.306;2024-02-04T04:34:38;6.93;;;2.03;;
41253;SDS011;26987;59.928;30.306;2024-02-04T04:37:06;8.85;;;1.77;;
41253;SDS011;26987;59.928;30.306;2024-02-04T04:39:34;10.15;;;1.95;;
41253;SDS011;26987;59.928;30.306;2024-02-04T04:42:02;7.82;;;1.65;;
41253;SDS011;26987;59.928;30.306;2024-02-04T04:44:30;5.20;;;1.27;;
41253;SDS011;26987;59.928;30.306;2024-02-04T04:46:57;6.78;;;1.70;;
41253;SDS011;26987;59.928;30.306;2024-02-04T04:49:25;10.50;;;0.95;;
41253;SDS011;26987;59.928;30.306;2024-02-04T04:51:55;3.30;;;1.10;;
41253;SDS011;26987;59.928;30.306;2024-02-04T04:54:23;10.52;;;1.45;;
41253;SDS011;26987;59.928;30.306;2024-02-04T04:56:50;8.00;;;1.42;;
41253;SDS011;26987;59.928;30.306;2024-02-04T04:59:18;5.55;;;1.27;;
41253;SDS011;26987;59.928;30.306;2024-02-04T05:01:46;9.23;;;1.40;;
41253;SDS011;26987;59.928;30.306;2024-02-04T05:04:18;10.02;;;1.20;;
41253;SDS011;26987;59.928;30.306;2024-02-04T05:06:47;8.48;;;1.33;;
41253;SDS011;26987;59.928;30.306;2024-02-04T05:09:16;6.78;;;1.25;;
41253;SDS011;26987;59.928;30.306;2024-02-04T05:11:44;5.68;;;1.23;;
41253;SDS011;26987;59.928;30.306;2024-02-04T05:14:12;5.90;;;1.23;;
41253;SDS011;26987;59.928;30.306;2024-02-04T05:16:40;8.57;;;1.60;;
41253;SDS011;26987;59.928;30.306;2024-02-04T05:19:10;5.82;;;1.23;;
41253;SDS011;26987;59.928;30.306;2024-02-04T05:21:38;9.40;;;1.40;;
41253;SDS011;26987;59.928;30.306;2024-02-04T05:24:06;6.32;;;1.88;;
41253;SDS011;26987;59.928;30.306;2024-02-04T05:26:36;9.02;;;1.83;;
41253;SDS011;26987;59.928;30.306;2024-02-04T05:29:04;8.15;;;2.70;;
41253;SDS011;26987;59.928;30.306;2024-02-04T05:31:30;8.18;;;2.33;;
41253;SDS011;26987;59.928;30.306;2024-02-04T05:33:58;12.48;;;3.42;;
41253;SDS011;26987;59.928;30.306;2024-02-04T05:36:26;9.13;;;3.45;;
41253;SDS011;26987;59.928;30.306;2024-02-04T05:38:54;12.32;;;4.57;;
41253;SDS011;26987;59.928;30.306;2024-02-04T05:41:22;11.18;;;5.00;;
41253;SDS011;26987;59.928;30.306;2024-02-04T05:43:51;18.30;;;5.20;;
41253;SDS011;26987;59.928;30.306;2024-02-04T05:46:19;14.85;;;5.50;;
41253;SDS011;26987;59.928;30.306;2024-02-04T05:48:46;17.42;;;6.50;;
41253;SDS011;26987;59.928;30.306;2024-02-04T05:51:15;14.68;;;6.13;;
41253;SDS011;26987;59.928;30.306;2024-02-04T05:53:43;15.57;;;6.78;;
41253;SDS011;26987;59.928;30.306;2024-02-04T05:56:11;21.40;;;7.30;;
41253;SDS011;26987;59.928;30.306;2024-02-04T05:58:39;17.52;;;7.00;;
41253;SDS011;26987;59.928;30.306;2024-02-04T06:01:08;16.95;;;6.80;;
41253;SDS011;26987;59.928;30.306;2024-02-04T06:03:36;22.80;;;6.93;;
41253;SDS011;26987;59.928;30.306;2024-02-04T06:06:04;22.70;;;7.28;;
41253;SDS011;26987;59.928;30.306;2024-02-04T06:08:32;21.58;;;7.63;;
41253;SDS011;26987;59.928;30.306;2024-02-04T06:11:00;23.17;;;7.05;;
41253;SDS011;26987;59.928;30.306;2024-02-04T06:13:28;21.65;;;6.85;;
41253;SDS011;26987;59.928;30.306;2024-02-04T06:15:56;20.90;;;7.68;;
41253;SDS011;26987;59.928;30.306;2024-02-04T06:18:25;23.10;;;7.47;;
41253;SDS011;26987;59.928;30.306;2024-02-04T06:20:53;23.35;;;7.40;;
41253;SDS011;26987;59.928;30.306;2024-02-04T06:23:21;19.17;;;7.47;;
41253;SDS011;26987;59.928;30.306;2024-02-04T06:25:49;22.33;;;8.48;;
41253;SDS011;26987;59.928;30.306;2024-02-04T06:28:17;17.60;;;7.80;;
41253;SDS011;26987;59.928;30.306;2024-02-04T06:30:45;18.63;;;8.05;;
41253;SDS011;26987;59.928;30.306;2024-02-04T06:33:13;22.17;;;8.93;;
41253;SDS011;26987;59.928;30.306;2024-02-04T06:35:43;23.42;;;8.50;;
41253;SDS011;26987;59.928;30.306;2024-02-04T06:38:10;23.45;;;7.47;;
41253;SDS011;26987;59.928;30.306;2024-02-04T06:40:38;18.63;;;7.38;;
41253;SDS011;26987;59.928;30.306;2024-02-04T06:43:06;22.23;;;7.68;;
41253;SDS011;26987;59.928;30.306;2024-02-04T06:45:34;19.92;;;8.25;;
41253;SDS011;26987;59.928;30.306;2024-02-04T06:48:03;20.17;;;8.10;;
41253;SDS011;26987;59.928;30.306;2024-02-04T06:50:31;20.23;;;7.25;;
41253;SDS011;26987;59.928;30.306;2024-02-04T06:53:00;18.73;;;7.38;;
41253;SDS011;26987;59.928;30.306;2024-02-04T06:55:28;21.25;;;7.80;;
41253;SDS011;26987;59.928;30.306;2024-02-04T06:57:56;20.80;;;8.23;;
41253;SDS011;26987;59.928;30.306;2024-02-04T07:00:24;21.58;;;8.15;;
41253;SDS011;26987;59.928;30.306;2024-02-04T07:02:52;21.02;;;8.00;;
41253;SDS011;26987;59.928;30.306;2024-02-04T07:05:21;17.77;;;6.82;;
41253;SDS011;26987;59.928;30.306;2024-02-04T07:07:50;16.73;;;6.90;;
41253;SDS011;26987;59.928;30.306;2024-02-04T07:10:20;20.17;;;7.65;;
41253;SDS011;26987;59.928;30.306;2024-02-04T07:12:48;25.90;;;7.10;;
41253;SDS011;26987;59.928;30.306;2024-02-04T07:15:16;15.50;;;6.50;;
41253;SDS011;26987;59.928;30.306;2024-02-04T07:17:43;17.85;;;6.57;;
41253;SDS011;26987;59.928;30.306;2024-02-04T07:20:11;17.52;;;6.55;;
41253;SDS011;26987;59.928;30.306;2024-02-04T07:22:39;16.05;;;6.07;;
41253;SDS011;26987;59.928;30.306;2024-02-04T07:25:08;22.13;;;6.20;;
41253;SDS011;26987;59.928;30.306;2024-02-04T07:27:37;19.77;;;5.93;;
41253;SDS011;26987;59.928;30.306;2024-02-04T07:30:06;16.38;;;5.45;;
41253;SDS011;26987;59.928;30.306;2024-02-04T07:32:35;20.52;;;6.18;;
41253;SDS011;26987;59.928;30.306;2024-02-04T07:35:03;18.17;;;5.63;;
41253;SDS011;26987;59.928;30.306;2024-02-04T07:37:32;12.75;;;4.90;;
41253;SDS011;26987;59.928;30.306;2024-02-04T07:39:59;13.07;;;4.80;;
41253;SDS011;26987;59.928;30.306;2024-02-04T07:42:28;18.02;;;5.53;;
41253;SDS011;26987;59.928;30.306;2024-02-04T07:44:57;19.05;;;6.43;;
41253;SDS011;26987;59.928;30.306;2024-02-04T07:47:25;12.52;;;5.05;;
41253;SDS011;26987;59.928;30.306;2024-02-04T07:49:53;18.33;;;5.72;;
41253;SDS011;26987;59.928;30.306;2024-02-04T07:52:21;15.20;;;5.32;;
41253;SDS011;26987;59.928;30.306;2024-02-04T07:54:49;17.38;;;5.88;;
41253;SDS011;26987;59.928;30.306;2024-02-04T07:57:17;14.35;;;5.93;;
41253;SDS011;26987;59.928;30.306;2024-02-04T07:59:45;20.60;;;5.53;;
41253;SDS011;26987;59.928;30.306;2024-02-04T08:02:14;13.23;;;5.10;;
41253;SDS011;26987;59.928;30.306;2024-02-04T08:04:42;16.15;;;4.78;;
41253;SDS011;26987;59.928;30.306;2024-02-04T08:07:10;15.10;;;4.63;;
41253;SDS011;26987;59.928;30.306;2024-02-04T08:09:38;13.77;;;3.88;;
41253;SDS011;26987;59.928;30.306;2024-02-04T08:12:06;10.25;;;4.15;;
41253;SDS011;26987;59.928;30.306;2024-02-04T08:14:35;16.30;;;4.28;;
41253;SDS011;26987;59.928;30.306;2024-02-04T08:17:03;14.30;;;3.72;;
41253;SDS011;26987;59.928;30.306;2024-02-04T08:19:33;8.75;;;3.85;;
41253;SDS011;26987;59.928;30.306;2024-02-04T08:22:01;9.77;;;3.55;;
41253;SDS011;26987;59.928;30.306;2024-02-04T08:24:30;17.88;;;4.05;;
41253;SDS011;26987;59.928;30.306;2024-02-04T08:26:58;9.57;;;3.58;;
41253;SDS011;26987;59.928;30.306;2024-02-04T08:29:26;9.23;;;3.55;;
41253;SDS011;26987;59.928;30.306;2024-02-04T08:31:56;6.53;;;3.15;;
41253;SDS011;26987;59.928;30.306;2024-02-04T08:34:24;13.10;;;3.13;;
41253;SDS011;26987;59.928;30.306;2024-02-04T08:36:53;9.00;;;3.65;;
41253;SDS011;26987;59.928;30.306;2024-02-04T08:39:21;13.13;;;3.17;;
41253;SDS011;26987;59.928;30.306;2024-02-04T08:41:51;11.93;;;3.55;;
41253;SDS011;26987;59.928;30.306;2024-02-04T08:44:19;6.95;;;2.42;;
41253;SDS011;26987;59.928;30.306;2024-02-04T08:46:47;12.88;;;3.92;;
41253;SDS011;26987;59.928;30.306;2024-02-04T08:49:15;6.90;;;2.30;;
41253;SDS011;26987;59.928;30.306;2024-02-04T08:51:43;7.75;;;2.15;;
41253;SDS011;26987;59.928;30.306;2024-02-04T08:54:12;9.50;;;2.42;;
41253;SDS011;26987;59.928;30.306;2024-02-04T08:56:40;8.50;;;2.00;;
41253;SDS011;26987;59.928;30.306;2024-02-04T08:59:08;6.28;;;1.88;;
41253;SDS011;26987;59.928;30.306;2024-02-04T09:01:36;5.25;;;1.60;;
41253;SDS011;26987;59.928;30.306;2024-02-04T09:04:04;6.05;;;1.70;;
41253;SDS011;26987;59.928;30.306;2024-02-04T09:06:32;8.10;;;1.67;;
41253;SDS011;26987;59.928;30.306;2024-02-04T09:09:00;5.07;;;1.23;;
41253;SDS011;26987;59.928;30.306;2024-02-04T09:11:30;6.65;;;1.60;;
41253;SDS011;26987;59.928;30.306;2024-02-04T09:13:58;7.18;;;1.85;;
41253;SDS011;26987;59.928;30.306;2024-02-04T09:16:26;5.05;;;1.20;;
41253;SDS011;26987;59.928;30.306;2024-02-04T09:18:54;6.47;;;1.23;;
41253;SDS011;26987;59.928;30.306;2024-02-04T09:21:22;4.43;;;1.20;;
41253;SDS011;26987;59.928;30.306;2024-02-04T09:23:50;8.85;;;2.53;;
41253;SDS011;26987;59.928;30.306;2024-02-04T09:26:18;6.63;;;1.70;;
41253;SDS011;26987;59.928;30.306;2024-02-04T09:28:47;4.72;;;1.30;;
41253;SDS011;26987;59.928;30.306;2024-02-04T09:31:15;10.75;;;1.67;;
41253;SDS011;26987;59.928;30.306;2024-02-04T09:33:43;8.30;;;1.40;;
41253;SDS011;26987;59.928;30.306;2024-02-04T09:36:11;8.20;;;1.00;;
41253;SDS011;26987;59.928;30.306;2024-02-04T09:38:39;7.32;;;1.25;;
41253;SDS011;26987;59.928;30.306;2024-02-04T09:41:07;6.07;;;1.60;;
41253;SDS011;26987;59.928;30.306;2024-02-04T09:43:35;8.77;;;1.15;;
41253;SDS011;26987;59.928;30.306;2024-02-04T09:46:06;3.08;;;0.80;;
41253;SDS011;26987;59.928;30.306;2024-02-04T09:48:34;4.78;;;1.00;;
41253;SDS011;26987;59.928;30.306;2024-02-04T09:51:05;5.28;;;0.95;;
41253;SDS011;26987;59.928;30.306;2024-02-04T09:53:34;6.25;;;1.30;;
41253;SDS011;26987;59.928;30.306;2024-02-04T09:56:04;3.88;;;1.00;;
41253;SDS011;26987;59.928;30.306;2024-02-04T09:58:33;6.90;;;1.23;;
41253;SDS011;26987;59.928;30.306;2024-02-04T10:01:01;6.53;;;1.13;;
41253;SDS011;26987;59.928;30.306;2024-02-04T10:03:33;10.13;;;1.15;;
41253;SDS011;26987;59.928;30.306;2024-02-04T10:06:00;4.28;;;1.25;;
41253;SDS011;26987;59.928;30.306;2024-02-04T10:08:28;3.53;;;0.70;;
41253;SDS011;26987;59.928;30.306;2024-02-04T10:10:56;4.05;;;0.98;;
41253;SDS011;26987;59.928;30.306;2024-02-04T10:13:25;9.35;;;2.47;;
41253;SDS011;26987;59.928;30.306;2024-02-04T10:15:53;10.70;;;1.60;;
41253;SDS011;26987;59.928;30.306;2024-02-04T10:18:21;6.68;;;1.02;;
41253;SDS011;26987;59.928;30.306;2024-02-04T10:20:50;5.63;;;1.10;;
41253;SDS011;26987;59.928;30.306;2024-02-04T10:23:19;2.97;;;1.00;;
41253;SDS011;26987;59.928;30.306;2024-02-04T10:25:47;4.60;;;0.90;;
41253;SDS011;26987;59.928;30.306;2024-02-04T10:28:25;5.00;;;1.25;;
41253;SDS011;26987;59.928;30.306;2024-02-04T10:30:53;4.60;;;0.70;;
41253;SDS011;26987;59.928;30.306;2024-02-04T10:33:21;4.53;;;0.80;;
41253;SDS011;26987;59.928;30.306;2024-02-04T10:35:51;6.07;;;0.80;;
41253;SDS011;26987;59.928;30.306;2024-02-04T10:38:19;4.45;;;0.70;;
41253;SDS011;26987;59.928;30.306;2024-02-04T10:40:47;7.45;;;1.00;;
41253;SDS011;26987;59.928;30.306;2024-02-04T10:43:17;3.28;;;0.90;;
41253;SDS011;26987;59.928;30.306;2024-02-04T10:45:46;5.53;;;1.00;;
41253;SDS011;26987;59.928;30.306;2024-02-04T10:48:15;5.47;;;1.00;;
41253;SDS011;26987;59.928;30.306;2024-02-04T10:50:47;4.03;;;0.80;;
41253;SDS011;26987;59.928;30.306;2024-02-04T10:53:20;6.80;;;0.93;;
41253;SDS011;26987;59.928;30.306;2024-02-04T10:55:49;4.55;;;1.17;;
41253;SDS011;26987;59.928;30.306;2024-02-04T10:58:21;4.75;;;0.73;;
41253;SDS011;26987;59.928;30.306;2024-02-04T11:00:52;5.75;;;0.95;;
41253;SDS011;26987;59.928;30.306;2024-02-04T11:03:20;3.58;;;0.80;;
41253;SDS011;26987;59.928;30.306;2024-02-04T11:05:54;5.20;;;0.82;;
41253;SDS011;26987;59.928;30.306;2024-02-04T11:08:23;5.55;;;1.20;;
41253;SDS011;26987;59.928;30.306;2024-02-04T11:10:51;6.30;;;0.93;;
41253;SDS011;26987;59.928;30.306;2024-02-04T11:13:20;5.95;;;1.23;;
41253;SDS011;26987;59.928;30.306;2024-02-04T11:16:05;5.53;;;0.90;;
41253;SDS011;26987;59.928;30.306;2024-02-04T11:19:08;5.43;;;0.90;;
41253;SDS011;26987;59.928;30.306;2024-02-04T11:21:54;4.03;;;1.00;;
41253;SDS011;26987;59.928;30.306;2024-02-04T11:24:55;3.97;;;0.85;;
41253;SDS011;26987;59.928;30.306;2024-02-04T11:27:37;5.25;;;0.88;;
41253;SDS011;26987;59.928;30.306;2024-02-04T11:30:06;4.88;;;1.25;;
41253;SDS011;26987;59.928;30.306;2024-02-04T11:32:36;7.00;;;0.93;;
41253;SDS011;26987;59.928;30.306;2024-02-04T11:35:04;8.18;;;0.73;;
41253;SDS011;26987;59.928;30.306;2024-02-04T11:37:35;7.93;;;1.83;;
41253;SDS011;26987;59.928;30.306;2024-02-04T11:40:04;5.13;;;1.27;;
41253;SDS011;26987;59.928;30.306;2024-02-04T11:42:32;10.27;;;1.17;;
41253;SDS011;26987;59.928;30.306;2024-02-04T11:45:07;3.67;;;0.85;;
41253;SDS011;26987;59.928;30.306;2024-02-04T11:47:36;8.60;;;1.08;;
41253;SDS011;26987;59.928;30.306;2024-02-04T11:50:05;6.45;;;1.00;;
41253;SDS011;26987;59.928;30.306;2024-02-04T11:52:36;5.65;;;1.08;;
41253;SDS011;26987;59.928;30.306;2024-02-04T11:55:05;9.40;;;1.35;;
41253;SDS011;26987;59.928;30.306;2024-02-04T11:57:40;3.72;;;0.88;;
41253;SDS011;26987;59.928;30.306;2024-02-04T12:00:08;5.72;;;1.05;;
41253;SDS011;26987;59.928;30.306;2024-02-04T12:02:38;7.03;;;1.00;;
41253;SDS011;26987;59.928;30.306;2024-02-04T12:05:06;6.45;;;1.25;;
41253;SDS011;26987;59.928;30.306;2024-02-04T12:07:35;7.78;;;1.58;;
41253;SDS011;26987;59.928;30.306;2024-02-04T12:10:06;8.00;;;1.13;;
41253;SDS011;26987;59.928;30.306;2024-02-04T12:12:35;5.75;;;1.00;;
41253;SDS011;26987;59.928;30.306;2024-02-04T12:15:03;6.88;;;1.20;;
41253;SDS011;26987;59.928;30.306;2024-02-04T12:17:32;6.43;;;1.20;;
41253;SDS011;26987;59.928;30.306;2024-02-04T12:20:00;5.60;;;1.73;;
41253;SDS011;26987;59.928;30.306;2024-02-04T12:22:31;6.18;;;2.15;;
41253;SDS011;26987;59.928;30.306;2024-02-04T12:25:01;8.13;;;2.45;;
41253;SDS011;26987;59.928;30.306;2024-02-04T12:27:32;7.60;;;1.17;;
41253;SDS011;26987;59.928;30.306;2024-02-04T12:30:06;4.45;;;0.90;;
41253;SDS011;26987;59.928;30.306;2024-02-04T12:32:34;6.32;;;1.00;;
41253;SDS011;26987;59.928;30.306;2024-02-04T12:35:02;5.18;;;1.05;;
41253;SDS011;26987;59.928;30.306;2024-02-04T12:37:32;9.50;;;1.35;;
41253;SDS011;26987;59.928;30.306;2024-02-04T12:40:02;4.95;;;0.98;;
41253;SDS011;26987;59.928;30.306;2024-02-04T12:42:30;4.18;;;0.88;;
41253;SDS011;26987;59.928;30.306;2024-02-04T12:44:58;5.10;;;1.05;;
41253;SDS011;26987;59.928;30.306;2024-02-04T12:47:27;4.00;;;0.90;;
41253;SDS011;26987;59.928;30.306;2024-02-04T12:50:00;8.00;;;1.42;;
41253;SDS011;26987;59.928;30.306;2024-02-04T12:52:28;3.83;;;1.02;;
41253;SDS011;26987;59.928;30.306;2024-02-04T12:55:01;3.97;;;0.95;;
41253;SDS011;26987;59.928;30.306;2024-02-04T12:57:30;3.65;;;1.10;;
41253;SDS011;26987;59.928;30.306;2024-02-04T13:00:03;7.30;;;1.65;;
41253;SDS011;26987;59.928;30.306;2024-02-04T13:02:32;7.45;;;1.60;;
41253;SDS011;26987;59.928;30.306;2024-02-04T13:05:01;5.45;;;0.70;;
41253;SDS011;26987;59.928;30.306;2024-02-04T13:07:29;6.38;;;1.13;;
41253;SDS011;26987;59.928;30.306;2024-02-04T13:09:57;7.03;;;1.40;;
41253;SDS011;26987;59.928;30.306;2024-02-04T13:12:27;8.77;;;1.33;;
41253;SDS011;26987;59.928;30.306;2024-02-04T13:14:55;2.75;;;0.93;;
41253;SDS011;26987;59.928;30.306;2024-02-04T13:17:23;6.22;;;0.70;;
41253;SDS011;26987;59.928;30.306;2024-02-04T13:19:51;6.28;;;0.80;;
41253;SDS011;26987;59.928;30.306;2024-02-04T13:22:19;7.70;;;1.13;;
41253;SDS011;26987;59.928;30.306;2024-02-04T13:24:47;5.70;;;0.93;;
41253;SDS011;26987;59.928;30.306;2024-02-04T13:27:15;2.25;;;0.68;;
41253;SDS011;26987;59.928;30.306;2024-02-04T13:29:45;7.60;;;0.95;;
41253;SDS011;26987;59.928;30.306;2024-02-04T13:32:13;6.88;;;1.35;;
41253;SDS011;26987;59.928;30.306;2024-02-04T13:34:41;5.45;;;0.63;;
41253;SDS011;26987;59.928;30.306;2024-02-04T13:37:09;5.88;;;0.98;;
41253;SDS011;26987;59.928;30.306;2024-02-04T13:39:37;7.22;;;1.00;;
41253;SDS011;26987;59.928;30.306;2024-02-04T13:42:05;6.18;;;0.80;;
41253;SDS011;26987;59.928;30.306;2024-02-04T13:44:33;3.85;;;1.00;;
41253;SDS011;26987;59.928;30.306;2024-02-04T13:47:02;9.65;;;1.80;;
41253;SDS011;26987;59.928;30.306;2024-02-04T13:49:31;6.28;;;1.08;;
41253;SDS011;26987;59.928;30.306;2024-02-04T13:51:59;11.32;;;1.30;;
41253;SDS011;26987;59.928;30.306;2024-02-04T13:54:27;7.53;;;0.80;;
41253;SDS011;26987;59.928;30.306;2024-02-04T13:56:55;5.00;;;0.95;;
41253;SDS011;26987;59.928;30.306;2024-02-04T13:59:23;7.85;;;1.20;;
41253;SDS011;26987;59.928;30.306;2024-02-04T14:01:51;6.22;;;1.10;;
41253;SDS011;26987;59.928;30.306;2024-02-04T14:04:21;4.45;;;0.90;;
41253;SDS011;26987;59.928;30.306;2024-02-04T14:06:49;8.18;;;1.30;;
41253;SDS011;26987;59.928;30.306;2024-02-04T14:09:17;4.75;;;0.88;;
41253;SDS011;26987;59.928;30.306;2024-02-04T14:11:45;8.00;;;1.27;;
41253;SDS011;26987;59.928;30.306;2024-02-04T14:14:13;4.95;;;1.48;;
41253;SDS011;26987;59.928;30.306;2024-02-04T14:16:41;12.32;;;2.95;;
41253;SDS011;26987;59.928;30.306;2024-02-04T14:19:09;15.93;;;2.42;;
41253;SDS011;26987;59.928;30.306;2024-02-04T14:21:40;6.35;;;1.30;;
41253;SDS011;26987;59.928;30.306;2024-02-04T14:24:09;6.50;;;1.20;;
41253;SDS011;26987;59.928;30.306;2024-02-04T14:26:36;6.03;;;1.42;;
41253;SDS011;26987;59.928;30.306;2024-02-04T14:29:05;12.07;;;2.63;;
41253;SDS011;26987;59.928;30.306;2024-02-04T14:31:33;5.28;;;0.80;;
41253;SDS011;26987;59.928;30.306;2024-02-04T14:34:01;3.90;;;0.80;;
41253;SDS011;26987;59.928;30.306;2024-02-04T14:36:29;6.18;;;1.00;;
41253;SDS011;26987;59.928;30.306;2024-02-04T14:38:58;5.63;;;1.13;;